createdAt,value
2018-05-08T00:02:01.543Z,1.97
2018-05-08T00:04:29.170Z,1.70
2018-05-08T00:06:56.882Z,1.90
2018-05-08T00:09:24.548Z,2.00
2018-05-08T00:11:52.182Z,1.60
2018-05-08T00:14:19.839Z,1.40
2018-05-08T00:16:47.466Z,1.80
2018-05-08T00:19:15.936Z,1.67
2018-05-08T00:21:44.420Z,2.40
2018-05-08T00:24:12.861Z,1.77
2018-05-08T00:26:40.562Z,1.60
2018-05-08T00:29:09.054Z,1.63
2018-05-08T00:31:36.752Z,2.17
2018-05-08T00:34:04.426Z,1.77
2018-05-08T00:36:32.945Z,1.83
2018-05-08T00:39:01.422Z,1.63
2018-05-08T00:41:29.865Z,1.60
2018-05-08T00:43:57.573Z,1.60
2018-05-08T00:46:26.010Z,1.80
2018-05-08T00:48:53.687Z,1.70
2018-05-08T00:51:21.393Z,2.30
2018-05-08T00:53:49.065Z,1.90
2018-05-08T00:56:16.773Z,2.00
2018-05-08T00:58:44.509Z,2.00
2018-05-08T01:01:12.209Z,1.50
2018-05-08T01:03:40.648Z,1.83
2018-05-08T01:06:08.351Z,1.80
2018-05-08T01:08:36.813Z,2.03
2018-05-08T01:11:04.501Z,1.90
2018-05-08T01:13:32.977Z,1.63
2018-05-08T01:16:01.446Z,1.73
2018-05-08T01:18:29.924Z,1.90
2018-05-08T01:20:57.629Z,2.07
2018-05-08T01:23:25.305Z,1.63
2018-05-08T01:25:53.005Z,1.73
2018-05-08T01:28:20.721Z,1.90
2018-05-08T01:30:48.457Z,2.00
2018-05-08T01:33:16.156Z,2.10
2018-05-08T01:35:43.931Z,1.90
2018-05-08T01:38:11.601Z,1.97
2018-05-08T01:40:39.285Z,1.63
2018-05-08T01:43:07.787Z,1.93
2018-05-08T01:45:35.468Z,1.90
2018-05-08T01:48:03.150Z,1.80
2018-05-08T01:50:30.853Z,1.70
2018-05-08T01:52:59.298Z,1.90
2018-05-08T01:55:27.005Z,1.50
2018-05-08T01:57:55.478Z,2.20
2018-05-08T02:00:23.941Z,1.90
2018-05-08T02:02:51.621Z,1.83
2018-05-08T02:05:20.113Z,2.33
2018-05-08T02:07:47.833Z,1.90
2018-05-08T02:10:15.517Z,2.03
2018-05-08T02:12:44.013Z,1.80
2018-05-08T02:15:11.695Z,1.80
2018-05-08T02:17:39.369Z,1.50
2018-05-08T02:20:07.078Z,1.77
2018-05-08T02:22:35.518Z,1.73
2018-05-08T02:25:04.013Z,1.73
2018-05-08T02:27:31.719Z,1.80
2018-05-08T02:29:59.420Z,1.80
2018-05-08T02:32:27.097Z,2.10
2018-05-08T02:34:54.802Z,2.30
2018-05-08T02:37:23.273Z,1.60
2018-05-08T02:39:51.709Z,1.90
2018-05-08T02:42:19.469Z,1.87
2018-05-08T02:44:47.156Z,2.53
2018-05-08T02:47:14.870Z,1.90
2018-05-08T02:49:42.597Z,2.33
2018-05-08T02:52:11.038Z,2.07
2018-05-08T02:54:39.506Z,2.43
2018-05-08T02:57:07.221Z,2.37
2018-05-08T02:59:35.682Z,2.40
2018-05-08T03:02:03.369Z,2.10
2018-05-08T03:04:31.857Z,2.27
2018-05-08T03:06:59.504Z,2.67
2018-05-08T03:09:27.911Z,2.20
2018-05-08T03:11:55.579Z,5.37
2018-05-08T03:14:23.266Z,5.93
2018-05-08T03:16:50.977Z,3.17
2018-05-08T03:19:19.449Z,2.80
2018-05-08T03:21:47.889Z,2.87
2018-05-08T03:24:15.622Z,2.57
2018-05-08T03:26:43.333Z,2.83
2018-05-08T03:29:11.028Z,3.20
2018-05-08T03:31:38.704Z,2.63
2018-05-08T03:34:06.413Z,4.03
2018-05-08T03:36:34.086Z,2.40
2018-05-08T03:39:02.553Z,3.83
2018-05-08T03:41:30.253Z,2.80
2018-05-08T03:43:57.929Z,3.10
2018-05-08T03:46:25.625Z,2.50
2018-05-08T03:48:53.340Z,2.50
2018-05-08T03:51:21.906Z,2.70
2018-05-08T03:53:50.373Z,2.57
2018-05-08T03:56:18.897Z,2.30
2018-05-08T03:58:46.593Z,3.23
2018-05-08T04:01:26.139Z,3.33
2018-05-08T04:04:05.750Z,2.90
2018-05-08T04:06:55.833Z,4.00
2018-05-08T04:09:23.545Z,4.43
2018-05-08T04:11:51.997Z,7.90
2018-05-08T04:14:19.702Z,6.10
2018-05-08T04:16:48.179Z,6.70
2018-05-08T04:19:16.617Z,5.30
2018-05-08T04:21:44.368Z,5.03
2018-05-08T04:24:12.045Z,4.60
2018-05-08T04:26:39.717Z,3.90
2018-05-08T04:29:07.425Z,3.67
2018-05-08T04:31:35.110Z,4.03
2018-05-08T04:34:02.815Z,3.20
2018-05-08T04:36:31.482Z,4.73
2018-05-08T04:38:59.131Z,6.97
2018-05-08T04:41:26.851Z,5.53
2018-05-08T04:43:54.555Z,5.47
2018-05-08T04:46:23.046Z,5.37
2018-05-08T04:48:51.513Z,4.53
2018-05-08T04:51:19.227Z,4.17
2018-05-08T04:53:47.669Z,2.90
2018-05-08T04:56:15.371Z,4.27
2018-05-08T04:58:43.078Z,3.20
2018-05-08T05:01:10.782Z,3.00
2018-05-08T05:03:39.234Z,2.17
2018-05-08T05:06:06.948Z,2.43
2018-05-08T05:08:34.653Z,2.43
2018-05-08T05:11:02.380Z,2.73
2018-05-08T05:13:30.166Z,3.13
2018-05-08T05:15:57.865Z,2.77
2018-05-08T05:18:26.313Z,2.17
2018-05-08T05:20:54.043Z,3.03
2018-05-08T05:23:21.733Z,2.30
2018-05-08T05:25:49.409Z,2.27
2018-05-08T05:28:17.113Z,1.77
2018-05-08T05:30:44.785Z,2.20
2018-05-08T05:33:12.482Z,2.33
2018-05-08T05:35:40.201Z,2.37
2018-05-08T05:38:07.881Z,1.50
2018-05-08T05:40:35.598Z,2.10
2018-05-08T05:43:04.093Z,2.03
2018-05-08T05:45:32.577Z,1.80
2018-05-08T05:48:00.249Z,1.33
2018-05-08T05:50:27.953Z,2.37
2018-05-08T05:52:55.657Z,2.30
2018-05-08T05:55:24.093Z,2.00
2018-05-08T05:57:51.795Z,1.67
2018-05-08T06:00:20.232Z,1.93
2018-05-08T06:02:47.936Z,1.93
2018-05-08T06:05:16.424Z,1.90
2018-05-08T06:07:44.895Z,1.63
2018-05-08T06:10:13.338Z,1.90
2018-05-08T06:12:41.043Z,1.67
2018-05-08T06:15:09.511Z,1.47
2018-05-08T06:17:37.949Z,2.30
2018-05-08T06:20:05.665Z,1.50
2018-05-08T06:22:34.116Z,1.50
2018-05-08T06:25:01.827Z,1.40
2018-05-08T06:27:29.533Z,1.30
2018-05-08T06:29:57.241Z,1.30
2018-05-08T06:32:24.938Z,1.27
2018-05-08T06:34:52.708Z,0.90
2018-05-08T06:37:20.385Z,1.30
2018-05-08T06:39:48.075Z,1.33
2018-05-08T06:42:16.581Z,1.80
2018-05-08T06:44:44.257Z,1.43
2018-05-08T06:47:11.930Z,2.70
2018-05-08T06:49:39.672Z,3.03
2018-05-08T06:52:07.345Z,2.77
2018-05-08T06:54:35.040Z,2.60
2018-05-08T06:57:03.637Z,3.63
2018-05-08T06:59:32.177Z,2.60
2018-05-08T07:01:59.893Z,2.00
2018-05-08T07:04:28.414Z,5.47
2018-05-08T07:06:56.090Z,2.70
2018-05-08T07:09:23.792Z,2.60
2018-05-08T07:11:52.268Z,2.53
2018-05-08T07:14:20.721Z,2.53
2018-05-08T07:16:48.417Z,2.67
2018-05-08T07:19:16.125Z,2.70
2018-05-08T07:21:43.801Z,2.17
2018-05-08T07:24:11.517Z,2.40
2018-05-08T07:26:39.226Z,3.17
2018-05-08T07:29:06.926Z,2.20
2018-05-08T07:31:35.373Z,2.40
2018-05-08T07:34:03.078Z,3.23
2018-05-08T07:36:30.784Z,2.13
2018-05-08T07:38:58.461Z,2.90
2018-05-08T07:41:26.223Z,2.00
2018-05-08T07:43:53.897Z,1.90
2018-05-08T07:46:22.349Z,1.90
2018-05-08T07:48:50.049Z,2.47
2018-05-08T07:51:18.493Z,2.27
2018-05-08T07:53:46.975Z,2.03
2018-05-08T07:56:14.685Z,1.83
2018-05-08T07:58:42.365Z,2.60
2018-05-08T08:01:10.062Z,2.23
2018-05-08T08:03:37.789Z,2.00
2018-05-08T08:06:05.525Z,2.47
2018-05-08T08:08:33.197Z,2.00
2018-05-08T08:11:00.897Z,2.40
2018-05-08T08:13:28.593Z,3.03
2018-05-08T08:15:57.033Z,2.30
2018-05-08T08:18:24.788Z,2.40
2018-05-08T08:20:52.458Z,2.10
2018-05-08T08:23:20.130Z,1.80
2018-05-08T08:25:47.833Z,2.20
2018-05-08T08:28:16.269Z,1.90
2018-05-08T08:30:43.969Z,2.07
2018-05-08T08:33:12.441Z,2.93
2018-05-08T08:35:40.881Z,2.93
2018-05-08T08:38:08.583Z,1.70
2018-05-08T08:40:37.097Z,1.60
2018-05-08T08:43:04.793Z,1.80
2018-05-08T08:45:32.477Z,1.57
2018-05-08T08:48:00.969Z,2.03
2018-05-08T08:50:29.410Z,1.50
2018-05-08T08:52:57.121Z,1.60
2018-05-08T08:55:25.593Z,2.53
2018-05-08T08:57:54.032Z,1.87
2018-05-08T09:00:21.733Z,1.50
2018-05-08T09:02:50.225Z,2.03
2018-05-08T09:05:17.912Z,2.67
2018-05-08T09:07:45.612Z,2.00
2018-05-08T09:10:13.333Z,1.80
2018-05-08T09:12:41.022Z,1.67
2018-05-08T09:15:08.763Z,1.80
2018-05-08T09:17:36.466Z,2.33
2018-05-08T09:20:04.193Z,1.67
2018-05-08T09:22:31.873Z,2.37
2018-05-08T09:24:59.585Z,1.97
2018-05-08T09:27:27.313Z,1.73
2018-05-08T09:29:54.991Z,1.63
2018-05-08T09:32:23.502Z,1.73
2018-05-08T09:34:51.191Z,1.90
2018-05-08T09:37:18.873Z,2.00
2018-05-08T09:39:46.581Z,2.33
2018-05-08T09:42:14.259Z,2.60
2018-05-08T09:44:41.961Z,1.87
2018-05-08T09:47:09.703Z,1.90
2018-05-08T09:49:37.385Z,1.90
2018-05-08T09:52:05.081Z,1.90
2018-05-08T09:54:32.816Z,1.80
2018-05-08T09:57:00.522Z,2.13
2018-05-08T09:59:28.216Z,1.90
2018-05-08T10:01:55.933Z,2.13
2018-05-08T10:04:23.633Z,1.90
2018-05-08T10:06:51.304Z,1.80
2018-05-08T10:09:19.033Z,2.10
2018-05-08T10:11:46.723Z,1.87
2018-05-08T10:14:14.393Z,2.13
2018-05-08T10:16:42.148Z,2.00
2018-05-08T10:19:09.846Z,2.10
2018-05-08T10:21:38.327Z,1.50
2018-05-08T10:24:06.818Z,2.07
2018-05-08T10:26:34.496Z,2.40
2018-05-08T10:29:02.197Z,2.20
2018-05-08T10:31:29.946Z,1.90
2018-05-08T10:33:57.649Z,1.67
2018-05-08T10:36:26.113Z,1.93
2018-05-08T10:38:53.837Z,2.00
2018-05-08T10:41:21.537Z,1.77
2018-05-08T10:43:49.210Z,1.90
2018-05-08T10:46:16.911Z,1.80
2018-05-08T10:48:44.617Z,2.00
2018-05-08T10:51:12.297Z,2.00
2018-05-08T10:53:40.814Z,1.80
2018-05-08T10:56:08.488Z,2.10
2018-05-08T10:58:36.164Z,1.90
2018-05-08T11:01:04.636Z,1.80
2018-05-08T11:03:32.313Z,2.67
2018-05-08T11:06:00.018Z,1.87
2018-05-08T11:08:28.493Z,2.20
2018-05-08T11:10:56.965Z,1.77
2018-05-08T11:13:25.461Z,2.30
2018-05-08T11:15:53.925Z,2.00
2018-05-08T11:18:22.393Z,1.77
2018-05-08T11:20:50.068Z,1.73
2018-05-08T11:23:18.541Z,1.70
2018-05-08T11:25:47.094Z,1.97
2018-05-08T11:28:14.781Z,2.00
2018-05-08T11:30:42.494Z,2.20
2018-05-08T11:33:10.169Z,1.57
2018-05-08T11:35:37.877Z,1.50
2018-05-08T11:38:06.365Z,1.90
2018-05-08T11:40:34.819Z,1.80
2018-05-08T11:43:02.532Z,1.70
2018-05-08T11:45:30.257Z,2.33
2018-05-08T11:47:58.725Z,1.90
2018-05-08T11:50:26.405Z,2.33
2018-05-08T11:52:54.875Z,1.80
2018-05-08T11:55:23.367Z,2.00
2018-05-08T11:57:51.049Z,1.70
2018-05-08T12:00:18.790Z,2.27
2018-05-08T12:02:47.234Z,2.23
2018-05-08T12:05:14.907Z,2.00
2018-05-08T12:07:42.609Z,1.73
2018-05-08T12:10:10.281Z,2.00
2018-05-08T12:12:37.973Z,1.80
2018-05-08T12:15:05.682Z,1.40
2018-05-08T12:17:34.121Z,1.53
2018-05-08T12:20:01.825Z,2.20
2018-05-08T12:22:30.290Z,2.13
2018-05-08T12:24:58.768Z,1.93
2018-05-08T12:27:27.210Z,2.20
2018-05-08T12:29:54.926Z,2.17
2018-05-08T12:32:23.393Z,2.50
2018-05-08T12:34:51.833Z,1.80
2018-05-08T12:37:19.554Z,2.10
2018-05-08T12:39:47.251Z,2.00
2018-05-08T12:42:14.945Z,2.13
2018-05-08T12:44:42.721Z,2.83
2018-05-08T12:47:11.185Z,2.73
2018-05-08T12:49:38.879Z,2.70
2018-05-08T12:52:06.590Z,2.60
2018-05-08T12:54:34.297Z,2.53
2018-05-08T12:57:02.738Z,2.50
2018-05-08T12:59:30.478Z,2.83
2018-05-08T13:01:58.150Z,2.80
2018-05-08T13:04:25.821Z,2.73
2018-05-08T13:06:53.523Z,2.17
2018-05-08T13:09:21.206Z,1.80
2018-05-08T13:11:48.913Z,2.27
2018-05-08T13:14:16.642Z,1.97
2018-05-08T13:16:44.324Z,2.00
2018-05-08T13:19:12.021Z,2.23
2018-05-08T13:21:40.498Z,2.10
2018-05-08T13:24:09.045Z,2.25
2018-05-08T13:26:36.702Z,2.13
2018-05-08T13:29:04.450Z,2.03
2018-05-08T13:31:32.129Z,2.70
2018-05-08T13:33:59.825Z,2.17
2018-05-08T13:36:28.314Z,1.90
2018-05-08T13:38:56.767Z,2.33
2018-05-08T13:41:24.476Z,1.70
2018-05-08T13:43:52.246Z,1.50
2018-05-08T13:46:19.924Z,2.22
2018-05-08T13:48:47.638Z,1.98
2018-05-08T13:51:16.118Z,2.30
2018-05-08T13:53:44.593Z,1.90
2018-05-08T13:56:13.036Z,1.90
2018-05-08T13:58:40.761Z,1.73
2018-05-08T14:01:08.479Z,1.30
2018-05-08T14:03:36.161Z,1.73
2018-05-08T14:06:04.697Z,1.33
2018-05-08T14:08:32.382Z,1.77
2018-05-08T14:11:00.065Z,1.70
2018-05-08T14:13:28.562Z,2.05
2018-05-08T14:15:56.304Z,1.55
2018-05-08T14:18:23.966Z,1.58
2018-05-08T14:20:52.491Z,2.10
2018-05-08T14:23:20.174Z,2.65
2018-05-08T14:25:47.877Z,2.70
2018-05-08T14:28:16.349Z,2.65
2018-05-08T14:30:44.801Z,2.08
2018-05-08T14:33:12.506Z,2.10
2018-05-08T14:35:40.222Z,2.50
2018-05-08T14:38:07.921Z,1.80
2018-05-08T14:40:36.370Z,2.78
2018-05-08T14:43:04.094Z,1.80
2018-05-08T14:45:31.807Z,2.03
2018-05-08T14:47:59.496Z,2.30
2018-05-08T14:50:27.244Z,1.70
2018-05-08T14:52:55.717Z,1.40
2018-05-08T14:55:23.397Z,2.00
2018-05-08T14:57:51.870Z,1.73
2018-05-08T15:00:20.318Z,2.20
2018-05-08T15:02:48.023Z,2.25
2018-05-08T15:05:15.733Z,2.08
2018-05-08T15:07:43.438Z,1.55
2018-05-08T15:10:11.909Z,2.22
2018-05-08T15:12:40.392Z,2.03
2018-05-08T15:15:08.856Z,1.98
2018-05-08T15:17:36.550Z,2.10
2018-05-08T15:20:04.285Z,1.33
2018-05-08T15:22:31.961Z,1.65
2018-05-08T15:25:00.461Z,1.90
2018-05-08T15:27:28.182Z,1.60
2018-05-08T15:29:55.874Z,1.00
2018-05-08T15:32:24.342Z,0.90
2018-05-08T15:34:52.822Z,1.60
2018-05-08T15:37:21.301Z,1.67
2018-05-08T15:39:49.746Z,1.10
2018-05-08T15:42:17.446Z,1.33
2018-05-08T15:44:45.939Z,1.30
2018-05-08T15:47:13.624Z,0.82
2018-05-08T15:49:41.390Z,0.82
2018-05-08T15:52:09.113Z,1.25
2018-05-08T15:54:37.569Z,1.23
2018-05-08T15:57:05.277Z,1.50
2018-05-08T15:59:32.962Z,1.50
2018-05-08T16:02:00.701Z,1.30
2018-05-08T16:04:28.465Z,1.58
2018-05-08T16:06:56.185Z,1.10
2018-05-08T16:09:23.878Z,1.27
2018-05-08T16:11:51.582Z,1.10
2018-05-08T16:14:19.289Z,0.98
2018-05-08T16:16:47.734Z,0.98
2018-05-08T16:19:15.443Z,1.17
2018-05-08T16:21:43.130Z,1.27
2018-05-08T16:24:10.829Z,1.15
2018-05-08T16:26:38.539Z,1.27
2018-05-08T16:29:06.241Z,1.33
2018-05-08T16:31:33.949Z,1.20
2018-05-08T16:34:01.661Z,1.27
2018-05-08T16:36:29.370Z,0.90
2018-05-08T16:38:57.818Z,0.80
2018-05-08T16:41:25.531Z,1.12
2018-05-08T16:43:53.237Z,1.17
2018-05-08T16:46:20.922Z,1.35
2018-05-08T16:48:49.397Z,1.27
2018-05-08T16:51:17.846Z,0.77
2018-05-08T16:53:45.541Z,1.48
2018-05-08T16:56:14.018Z,0.73
2018-05-08T16:58:42.466Z,0.85
2018-05-08T17:01:10.170Z,1.12
2018-05-08T17:03:38.645Z,1.53
2018-05-08T17:06:07.090Z,0.70
2018-05-08T17:08:34.797Z,0.80
2018-05-08T17:11:02.510Z,0.83
2018-05-08T17:13:30.981Z,0.80
2018-05-08T17:15:58.657Z,1.17
2018-05-08T17:18:26.394Z,1.00
2018-05-08T17:20:54.068Z,1.07
2018-05-08T17:23:21.742Z,0.90
2018-05-08T17:25:49.462Z,1.10
2018-05-08T17:28:17.150Z,0.90
2018-05-08T17:30:44.866Z,1.00
2018-05-08T17:33:13.341Z,1.10
2018-05-08T17:35:41.789Z,1.00
2018-05-08T17:38:09.492Z,1.07
2018-05-08T17:40:37.962Z,1.40
2018-05-08T17:43:06.439Z,1.10
2018-05-08T17:45:34.902Z,1.10
2018-05-08T17:48:02.615Z,1.30
2018-05-08T17:50:30.315Z,0.87
2018-05-08T17:52:57.986Z,1.10
2018-05-08T17:55:25.737Z,1.20
2018-05-08T17:57:54.251Z,1.40
2018-05-08T18:00:22.697Z,1.60
2018-05-08T18:02:51.179Z,1.30
2018-05-08T18:05:18.872Z,1.30
2018-05-08T18:07:47.333Z,1.60
2018-05-08T18:10:15.049Z,1.53
2018-05-08T18:12:42.782Z,1.43
2018-05-08T18:15:11.252Z,1.87
2018-05-08T18:17:39.784Z,1.43
2018-05-08T18:20:08.245Z,1.73
2018-05-08T18:22:35.961Z,1.70
2018-05-08T18:25:03.770Z,1.43
2018-05-08T18:27:31.469Z,1.60
2018-05-08T18:29:59.152Z,1.80
2018-05-08T18:32:26.904Z,1.60
2018-05-08T18:34:54.597Z,1.63
2018-05-08T18:37:23.071Z,1.23
2018-05-08T18:39:51.548Z,1.63
2018-05-08T18:42:20.034Z,1.37
2018-05-08T18:44:48.563Z,1.50
2018-05-08T18:47:16.270Z,1.33
2018-05-08T18:49:44.868Z,1.60
2018-05-08T18:52:12.461Z,2.30
2018-05-08T18:54:40.187Z,1.93
2018-05-08T18:57:07.906Z,1.67
2018-05-08T18:59:35.639Z,2.47
2018-05-08T19:02:03.525Z,2.60
2018-05-08T19:04:31.230Z,2.00
2018-05-08T19:06:59.713Z,1.37
2018-05-08T19:09:27.497Z,1.83
2018-05-08T19:11:55.925Z,2.63
2018-05-08T19:14:23.633Z,2.20
2018-05-08T19:16:51.368Z,2.00
2018-05-08T19:19:25.566Z,1.90
2018-05-08T19:21:53.293Z,2.07
2018-05-08T19:24:26.706Z,2.33
2018-05-08T19:26:54.410Z,1.90
2018-05-08T19:29:28.625Z,2.60
2018-05-08T19:31:57.182Z,2.40
2018-05-08T19:34:39.758Z,2.43
2018-05-08T19:37:13.058Z,2.90
2018-05-08T19:39:40.766Z,3.30
2018-05-08T19:42:09.207Z,2.63
2018-05-08T19:44:36.953Z,3.17
2018-05-08T19:47:04.657Z,2.37
2018-05-08T19:49:32.333Z,3.33
2018-05-08T19:52:00.821Z,2.33
2018-05-08T19:54:29.265Z,2.93
2018-05-08T19:56:56.973Z,3.03
2018-05-08T19:59:24.678Z,2.90
2018-05-08T20:01:52.377Z,3.33
2018-05-08T20:04:20.858Z,2.70
2018-05-08T20:06:49.341Z,3.03
2018-05-08T20:09:17.778Z,2.47
2018-05-08T20:11:45.482Z,3.20
2018-05-08T20:14:13.973Z,3.10
2018-05-08T20:16:42.457Z,3.27
2018-05-08T20:19:10.137Z,2.87
2018-05-08T20:21:37.902Z,2.97
2018-05-08T20:24:05.604Z,2.57
2018-05-08T20:26:33.293Z,2.60
2018-05-08T20:29:01.769Z,2.53
2018-05-08T20:31:30.223Z,2.20
2018-05-08T20:33:57.929Z,2.50
2018-05-08T20:36:25.724Z,2.70
2018-05-08T20:38:54.122Z,2.20
2018-05-08T20:41:21.827Z,2.27
2018-05-08T20:43:49.533Z,2.57
2018-05-08T20:46:17.238Z,2.30
2018-05-08T20:48:45.682Z,2.37
2018-05-08T20:51:13.397Z,1.83
2018-05-08T20:53:41.115Z,2.27
2018-05-08T20:56:08.830Z,2.10
2018-05-08T20:58:36.646Z,2.43
2018-05-08T21:01:04.346Z,2.40
2018-05-08T21:03:32.044Z,2.47
2018-05-08T21:05:59.753Z,2.50
2018-05-08T21:08:28.189Z,2.60
2018-05-08T21:10:55.889Z,2.70
2018-05-08T21:13:24.366Z,2.47
2018-05-08T21:15:52.833Z,3.30
2018-05-08T21:18:20.512Z,2.47
2018-05-08T21:20:48.996Z,2.90
2018-05-08T21:23:17.476Z,1.80
2018-05-08T21:25:45.917Z,2.73
2018-05-08T21:28:19.411Z,2.30
2018-05-08T21:31:02.917Z,2.70
2018-05-08T21:33:30.617Z,2.50
2018-05-08T21:35:58.301Z,2.97
2018-05-08T21:38:26.761Z,2.60
2018-05-08T21:40:54.466Z,2.30
2018-05-08T21:43:22.168Z,2.20
2018-05-08T21:45:49.849Z,2.47
2018-05-08T21:48:17.563Z,2.33
2018-05-08T21:50:45.266Z,2.30
2018-05-08T21:53:12.949Z,2.03
2018-05-08T21:55:41.434Z,1.87
2018-05-08T21:58:09.879Z,1.87
2018-05-08T22:00:38.349Z,2.03
2018-05-08T22:03:06.056Z,2.13
2018-05-08T22:05:34.497Z,2.57
2018-05-08T22:08:02.200Z,2.33
2018-05-08T22:10:30.673Z,2.43
2018-05-08T22:12:59.141Z,2.20
2018-05-08T22:15:27.594Z,2.40
2018-05-08T22:17:55.297Z,2.00
2018-05-08T22:20:23.843Z,2.10
2018-05-08T22:22:51.499Z,2.10
2018-05-08T22:25:19.206Z,2.83
2018-05-08T22:27:47.649Z,1.70
2018-05-08T22:30:15.345Z,2.20
2018-05-08T22:32:43.821Z,1.80
2018-05-08T22:35:12.305Z,2.00
2018-05-08T22:37:40.751Z,1.83
2018-05-08T22:40:08.504Z,2.50
2018-05-08T22:42:36.206Z,2.30
2018-05-08T22:45:04.644Z,2.20
2018-05-08T22:47:32.345Z,2.00
2018-05-08T22:50:00.786Z,2.47
2018-05-08T22:52:28.459Z,2.37
2018-05-08T22:54:56.159Z,2.10
2018-05-08T22:57:24.605Z,1.87
2018-05-08T22:59:52.299Z,2.20
2018-05-08T23:02:20.769Z,2.20
2018-05-08T23:04:49.207Z,1.63
2018-05-08T23:07:16.922Z,2.50
2018-05-08T23:09:45.410Z,1.93
2018-05-08T23:12:13.110Z,2.07
2018-05-08T23:14:40.785Z,1.80
2018-05-08T23:17:08.489Z,1.80
2018-05-08T23:19:36.961Z,2.00
2018-05-08T23:22:05.404Z,1.93
2018-05-08T23:24:33.105Z,1.60
2018-05-08T23:27:01.548Z,1.80
2018-05-08T23:29:29.245Z,1.50
2018-05-08T23:31:57.713Z,1.50
2018-05-08T23:34:26.153Z,1.70
2018-05-08T23:36:53.853Z,1.40
2018-05-08T23:39:22.329Z,1.37
2018-05-08T23:41:50.796Z,1.30
2018-05-08T23:44:18.557Z,0.73
2018-05-08T23:46:46.285Z,1.00
2018-05-08T23:49:13.958Z,1.20
2018-05-08T23:51:41.629Z,1.10
2018-05-08T23:54:09.329Z,0.83
2018-05-08T23:56:37.764Z,0.80
2018-05-08T23:59:05.461Z,1.00
